createdAt,value
2019-02-21T00:00:30.453Z,12.20
2019-02-21T00:04:29.280Z,11.67
2019-02-21T00:08:35.357Z,11.70
2019-02-21T00:12:33.954Z,11.67
2019-02-21T00:16:32.869Z,11.53
2019-02-21T00:20:34.089Z,10.17
2019-02-21T00:24:32.638Z,12.37
2019-02-21T00:28:41.745Z,11.77
2019-02-21T00:32:40.419Z,11.10
2019-02-21T00:36:39.375Z,12.13
2019-02-21T00:40:37.973Z,12.03
2019-02-21T00:44:37.442Z,11.93
2019-02-21T00:48:36.178Z,12.47
2019-02-21T00:52:36.764Z,12.27
2019-02-21T00:56:39.783Z,12.03
2019-02-21T01:00:46.650Z,13.10
2019-02-21T01:04:40.080Z,12.63
2019-02-21T01:08:38.684Z,12.37
2019-02-21T01:12:37.285Z,12.77
2019-02-21T01:16:35.844Z,13.27
2019-02-21T01:20:34.505Z,13.20
2019-02-21T01:24:33.148Z,14.40
2019-02-21T01:28:31.741Z,13.77
2019-02-21T01:32:30.519Z,13.97
2019-02-21T01:36:29.090Z,15.97
2019-02-21T01:40:27.671Z,14.27
2019-02-21T01:44:26.280Z,14.30
2019-02-21T01:48:30.350Z,15.73
2019-02-21T01:52:29.299Z,15.13
2019-02-21T01:56:27.886Z,14.73
2019-02-21T02:00:26.489Z,14.93
2019-02-21T02:04:25.093Z,15.63
2019-02-21T02:08:23.662Z,15.53
2019-02-21T02:12:22.241Z,14.70
2019-02-21T02:16:20.899Z,14.53
2019-02-21T02:20:19.932Z,15.90
2019-02-21T02:24:18.615Z,15.67
2019-02-21T02:28:17.218Z,14.67
2019-02-21T02:32:15.785Z,14.70
2019-02-21T02:36:14.386Z,13.67
2019-02-21T02:40:13.089Z,13.53
2019-02-21T02:44:11.748Z,14.63
2019-02-21T02:48:10.322Z,13.43
2019-02-21T02:52:08.984Z,13.50
2019-02-21T02:56:07.654Z,13.43
2019-02-21T03:00:09.333Z,12.80
2019-02-21T03:04:07.912Z,13.43
2019-02-21T03:08:06.476Z,12.10
2019-02-21T03:12:07.283Z,12.63
2019-02-21T03:16:05.911Z,11.97
2019-02-21T03:20:06.850Z,12.13
2019-02-21T03:24:05.520Z,12.20
2019-02-21T03:28:04.220Z,12.30
2019-02-21T03:32:02.806Z,12.40
2019-02-21T03:36:01.406Z,13.20
2019-02-21T03:39:59.970Z,12.90
2019-02-21T03:43:58.560Z,12.37
2019-02-21T03:47:57.152Z,12.67
2019-02-21T03:51:55.736Z,12.50
2019-02-21T03:55:54.403Z,12.47
2019-02-21T03:59:53.110Z,13.47
2019-02-21T04:03:51.768Z,12.73
2019-02-21T04:07:50.361Z,13.10
2019-02-21T04:12:06.958Z,12.27
2019-02-21T04:16:05.784Z,12.33
2019-02-21T04:20:06.965Z,13.47
2019-02-21T04:24:05.544Z,13.37
2019-02-21T04:28:04.129Z,12.17
2019-02-21T04:32:02.739Z,13.07
2019-02-21T04:36:01.321Z,12.70
2019-02-21T04:39:59.915Z,14.13
2019-02-21T04:43:58.552Z,13.60
2019-02-21T04:47:57.530Z,14.40
2019-02-21T04:51:56.363Z,14.67
2019-02-21T04:55:54.908Z,14.57
2019-02-21T04:59:53.685Z,15.43
2019-02-21T05:03:52.296Z,14.80
2019-02-21T05:07:51.258Z,15.73
2019-02-21T05:11:49.840Z,15.87
2019-02-21T05:15:48.504Z,15.77
2019-02-21T05:19:47.080Z,15.27
2019-02-21T05:23:45.858Z,15.43
2019-02-21T05:27:46.049Z,16.90
2019-02-21T05:32:02.535Z,17.10
2019-02-21T05:36:02.895Z,15.63
2019-02-21T05:40:22.068Z,15.50
2019-02-21T05:44:28.299Z,15.87
2019-02-21T05:48:40.066Z,15.73
2019-02-21T05:52:54.754Z,16.60
2019-02-21T05:57:01.104Z,16.97
2019-02-21T06:01:17.671Z,18.50
2019-02-21T06:05:30.163Z,17.20
2019-02-21T06:09:30.411Z,18.43
2019-02-21T06:13:39.799Z,17.67
2019-02-21T06:17:46.657Z,18.20
2019-02-21T06:21:47.170Z,18.93
2019-02-21T06:25:56.733Z,19.60
2019-02-21T06:29:58.022Z,21.17
2019-02-21T06:33:57.014Z,19.83
2019-02-21T06:38:07.088Z,18.90
2019-02-21T06:42:05.818Z,20.67
2019-02-21T06:46:04.365Z,20.90
2019-02-21T06:50:03.260Z,21.37
2019-02-21T06:54:02.187Z,21.50
2019-02-21T06:58:00.771Z,21.00
2019-02-21T07:01:59.629Z,21.57
2019-02-21T07:05:58.578Z,21.93
2019-02-21T07:10:03.198Z,20.77
2019-02-21T07:14:03.480Z,21.47
2019-02-21T07:18:02.014Z,21.67
2019-02-21T07:22:00.586Z,21.53
2019-02-21T07:26:00.556Z,21.10
2019-02-21T07:29:59.108Z,22.23
2019-02-21T07:33:57.707Z,23.63
2019-02-21T07:37:56.296Z,22.10
2019-02-21T07:41:55.766Z,23.97
2019-02-21T07:45:59.319Z,23.93
2019-02-21T07:49:57.895Z,22.43
2019-02-21T07:53:56.461Z,22.00
2019-02-21T07:57:55.088Z,24.80
2019-02-21T08:01:54.202Z,21.67
2019-02-21T08:05:52.789Z,23.07
2019-02-21T08:09:51.538Z,22.83
2019-02-21T08:13:50.120Z,22.37
2019-02-21T08:17:50.426Z,21.50
2019-02-21T08:21:49.132Z,21.03
2019-02-21T08:25:48.088Z,21.07
2019-02-21T08:29:47.027Z,22.23
2019-02-21T08:33:58.011Z,21.63
2019-02-21T08:37:47.604Z,22.30
2019-02-21T08:41:46.573Z,21.57
2019-02-21T08:45:45.162Z,21.87
2019-02-21T08:49:43.854Z,23.77
2019-02-21T08:53:42.747Z,21.00
2019-02-21T08:57:41.264Z,22.07
2019-02-21T09:01:40.618Z,21.17
2019-02-21T09:05:39.451Z,21.87
2019-02-21T09:09:38.067Z,21.70
2019-02-21T09:13:36.654Z,21.80
2019-02-21T09:17:36.021Z,22.33
2019-02-21T09:21:34.615Z,20.77
2019-02-21T09:25:33.370Z,22.17
2019-02-21T09:29:36.181Z,21.73
2019-02-21T09:33:37.113Z,21.63
2019-02-21T09:37:35.537Z,22.87
2019-02-21T09:41:34.217Z,23.60
2019-02-21T09:45:35.868Z,21.70
2019-02-21T09:49:56.460Z,22.33
2019-02-21T09:53:54.879Z,21.93
2019-02-21T09:57:55.580Z,22.27
2019-02-21T10:01:53.785Z,22.97
2019-02-21T10:05:52.402Z,22.87
2019-02-21T10:09:50.981Z,22.87
2019-02-21T10:13:49.583Z,22.43
2019-02-21T10:17:51.614Z,20.63
2019-02-21T10:21:50.152Z,23.40
2019-02-21T10:25:48.781Z,22.03
2019-02-21T10:29:47.705Z,21.43
2019-02-21T10:33:47.297Z,22.90
2019-02-21T10:37:46.233Z,22.70
2019-02-21T10:41:44.906Z,23.53
2019-02-21T10:45:47.928Z,22.73
2019-02-21T10:49:43.820Z,22.70
2019-02-21T10:53:43.709Z,22.27
2019-02-21T10:57:42.364Z,21.67
2019-02-21T11:01:41.037Z,24.00
2019-02-21T11:05:48.522Z,21.57
2019-02-21T11:09:55.945Z,22.67
2019-02-21T11:13:54.559Z,21.73
2019-02-21T11:17:53.608Z,20.17
2019-02-21T11:21:52.288Z,23.03
2019-02-21T11:25:50.913Z,19.93
2019-02-21T11:29:49.522Z,22.03
2019-02-21T17:24:06.976Z,15.63
2019-02-21T17:28:05.566Z,16.43
2019-02-21T17:32:04.262Z,16.67
2019-02-21T17:36:02.938Z,16.30
2019-02-21T17:40:02.513Z,17.87
2019-02-21T17:44:01.096Z,18.17
2019-02-21T17:47:59.734Z,18.03
2019-02-21T17:51:58.463Z,16.40
2019-02-21T17:55:57.103Z,16.27
2019-02-21T17:59:57.569Z,16.47
2019-02-21T18:03:56.596Z,17.87
2019-02-21T18:07:55.240Z,17.03
2019-02-21T18:11:53.859Z,17.97
2019-02-21T18:15:52.485Z,16.67
2019-02-21T18:19:51.535Z,15.10
2019-02-21T18:23:50.159Z,17.10
2019-02-21T18:27:50.269Z,19.13
2019-02-21T18:31:48.852Z,18.13
2019-02-21T18:35:47.487Z,18.47
2019-02-21T18:39:46.078Z,18.37
2019-02-21T18:43:44.707Z,17.33
2019-02-21T18:47:43.315Z,18.10
2019-02-21T18:51:41.911Z,19.97
2019-02-21T18:55:40.536Z,20.27
2019-02-21T18:59:39.756Z,22.50
2019-02-21T19:03:39.216Z,21.83
2019-02-21T19:07:45.548Z,23.90
2019-02-21T19:11:44.131Z,25.33
2019-02-21T19:15:43.363Z,22.37
2019-02-21T19:19:43.500Z,24.33
2019-02-21T19:23:42.145Z,24.93
2019-02-21T19:27:41.424Z,24.23
2019-02-21T19:31:40.043Z,24.40
2019-02-21T19:35:38.666Z,24.97
2019-02-21T19:39:37.346Z,25.00
2019-02-21T19:43:35.926Z,28.03
2019-02-21T19:47:36.300Z,27.07
2019-02-21T19:51:35.092Z,26.77
2019-02-21T19:55:35.379Z,25.90
2019-02-21T19:59:34.371Z,26.60
2019-02-21T20:03:33.247Z,26.80
2019-02-21T20:07:32.043Z,26.57
2019-02-21T20:11:30.919Z,27.43
2019-02-21T20:15:29.500Z,26.40
2019-02-21T20:19:28.107Z,27.10
2019-02-21T20:23:26.856Z,26.57
2019-02-21T20:27:25.382Z,28.43
2019-02-21T20:31:24.095Z,28.27
2019-02-21T20:35:22.888Z,26.97
2019-02-21T20:39:21.539Z,26.23
2019-02-21T20:43:32.012Z,27.67
2019-02-21T20:47:30.712Z,27.03
2019-02-21T20:51:29.323Z,26.30
2019-02-21T20:55:28.015Z,24.60
2019-02-21T20:59:26.642Z,25.30
2019-02-21T21:03:25.231Z,25.33
2019-02-21T21:07:25.329Z,25.13
2019-02-21T21:11:24.675Z,26.13
2019-02-21T21:15:23.309Z,26.07
2019-02-21T21:19:22.565Z,27.93
2019-02-21T21:23:21.409Z,25.67
2019-02-21T21:27:20.036Z,26.47
2019-02-21T21:31:18.679Z,28.30
2019-02-21T21:35:17.349Z,27.93
2019-02-21T21:39:16.108Z,28.60
2019-02-21T21:43:16.624Z,29.27
2019-02-21T21:47:15.246Z,28.10
2019-02-21T21:51:13.910Z,29.30
2019-02-21T21:55:12.783Z,30.77
2019-02-21T21:59:16.260Z,29.50
2019-02-21T22:03:14.848Z,30.43
2019-02-21T22:07:13.469Z,32.93
2019-02-21T22:11:12.029Z,31.07
2019-02-21T22:15:19.096Z,32.43
2019-02-21T22:19:17.692Z,31.63
2019-02-21T22:23:18.261Z,31.30
2019-02-21T22:27:17.215Z,29.33
2019-02-21T22:31:15.805Z,30.97
2019-02-21T22:35:14.397Z,30.73
2019-02-21T22:39:16.314Z,30.70
2019-02-21T22:43:13.434Z,31.03
2019-02-21T22:47:12.007Z,32.13
2019-02-21T22:51:10.585Z,33.57
2019-02-21T22:55:10.455Z,32.17
2019-02-21T22:59:09.486Z,31.83
2019-02-21T23:03:12.487Z,31.40
2019-02-21T23:07:23.806Z,30.97
2019-02-21T23:11:42.462Z,32.50
2019-02-21T23:15:41.439Z,33.10
2019-02-21T23:19:40.292Z,32.73
2019-02-21T23:23:39.091Z,34.10
2019-02-21T23:27:37.652Z,34.17
2019-02-21T23:31:36.283Z,33.40
2019-02-21T23:35:35.078Z,34.70
2019-02-21T23:39:38.360Z,35.00
2019-02-21T23:43:34.361Z,33.43
2019-02-21T23:47:49.911Z,35.27
2019-02-21T23:51:47.868Z,36.30
2019-02-21T23:55:46.602Z,35.67
2019-02-21T23:59:45.187Z,37.20
